Hebertville, Canada
Current Conditions -  °F | °C
As of 4:43 PM on Wednesday 26 Nov 2014 (Local Time) from CYRJ Reporting Station
Overcast Overcast  
Wind Chill: 19°   Ceiling: 3500
Heat Index: 25°   Visibility: 20mi
Dew Point: 16°   Wind: 5mph
Humidity: 69%   Direction: 350°N
Pressure: 30.24"   Gusts: NA
Location:  48.4°N, 71.68°W
Report Text: CYRJ 262143Z 35004KT 20SM FEW015 OVC035 M04/M09 A3024 RMK SF1SC8 SF TR SLP251
Loading
Personal Weather Stations






























Interactive Weather Map New forecast layout! Learn more

10-Day Weather Forecast

Advertisements
Track Severe Weather on mobile